Time;durP1;ratioP1;P1;durP2;ratioP2;P2;SDS_P1;SDS_P2;PMS_P1;PMS_P2;Temp;Humidity;BMP_temperature;BMP_pressure;BME280_temperature;BME280_humidity;BME280_pressure;Samples;Min_cycle;Max_cycle;Signal;HPM_P1;HPM_P2
2023/05/20 00:00:08;;;;;;;2.90;2.27;;;12.20;76.40;;;;;;5053060;28;20803;-64
2023/05/20 00:02:35;;;;;;;2.33;2.07;;;12.20;76.80;;;;;;5053426;28;20448;-63
2023/05/20 00:05:02;;;;;;;2.83;1.97;;;12.10;77.50;;;;;;5053495;28;20455;-64
2023/05/20 00:07:29;;;;;;;2.70;2.37;;;12.10;78.20;;;;;;5053305;28;20438;-64
2023/05/20 00:09:56;;;;;;;4.40;2.40;;;12.00;78.50;;;;;;5052966;28;20845;-62
2023/05/20 00:12:23;;;;;;;2.80;2.37;;;12.00;79.00;;;;;;5053184;28;20455;-63
2023/05/20 00:14:51;;;;;;;3.20;2.03;;;11.90;80.10;;;;;;5053137;28;20450;-63
2023/05/20 00:17:17;;;;;;;2.27;1.90;;;11.90;80.60;;;;;;5053090;28;20483;-64
2023/05/20 00:19:44;;;;;;;3.30;2.03;;;11.90;81.40;;;;;;5052969;28;20471;-61
2023/05/20 00:22:11;;;;;;;2.70;2.23;;;11.90;82.00;;;;;;5052792;28;20458;-63
2023/05/20 00:24:38;;;;;;;5.60;2.27;;;11.90;82.70;;;;;;5053046;28;20822;-63
2023/05/20 00:27:05;;;;;;;2.90;2.03;;;11.90;82.80;;;;;;5054991;28;20443;-63
2023/05/20 00:29:33;;;;;;;2.60;2.40;;;11.80;83.40;;;;;;5056905;28;20816;-63
2023/05/20 00:32:01;;;;;;;3.70;2.47;;;11.80;84.00;;;;;;5056940;28;20444;-62
2023/05/20 00:34:28;;;;;;;2.57;2.07;;;11.80;84.70;;;;;;5056972;28;20789;-63
2023/05/20 00:36:55;;;;;;;4.33;2.10;;;11.70;84.80;;;;;;5056510;28;21004;-63
2023/05/20 00:39:21;;;;;;;3.20;1.80;;;11.70;85.20;;;;;;5056672;28;20468;-62
2023/05/20 00:41:48;;;;;;;2.70;2.50;;;11.70;86.60;;;;;;5056493;28;20958;-63
2023/05/20 00:44:16;;;;;;;3.03;2.20;;;11.70;86.30;;;;;;5056330;28;20563;-62
2023/05/20 00:46:43;;;;;;;2.60;1.97;;;11.60;86.60;;;;;;5056273;28;20448;-63
2023/05/20 00:49:12;;;;;;;2.23;1.97;;;11.60;87.30;;;;;;5056586;28;20466;-63
2023/05/20 00:51:38;;;;;;;4.10;2.00;;;11.60;87.80;;;;;;5056612;28;20470;-63
2023/05/20 00:54:05;;;;;;;3.03;2.23;;;11.60;88.20;;;;;;5056563;28;20531;-65
2023/05/20 00:56:32;;;;;;;2.00;1.80;;;11.50;88.20;;;;;;5056062;28;20480;-67
2023/05/20 00:58:59;;;;;;;2.00;1.80;;;11.50;88.70;;;;;;5056454;28;20474;-63
2023/05/20 01:01:26;;;;;;;2.30;2.03;;;11.40;89.00;;;;;;5056863;28;20448;-64
2023/05/20 01:03:53;;;;;;;2.63;2.00;;;11.50;89.30;;;;;;5056566;28;20444;-64
2023/05/20 01:06:21;;;;;;;1.67;1.57;;;11.40;89.40;;;;;;5056505;28;20446;-63
2023/05/20 01:08:48;;;;;;;2.03;1.83;;;11.40;89.40;;;;;;5056391;28;20472;-63
2023/05/20 01:11:21;;;;;;;4.93;2.50;;;11.40;89.70;;;;;;5056007;28;20953;-62
2023/05/20 01:13:54;;;;;;;3.37;2.13;;;11.30;89.90;;;;;;5056296;28;20441;-63
2023/05/20 01:16:23;;;;;;;2.40;1.60;;;11.30;89.90;;;;;;5056349;28;20468;-62
2023/05/20 01:18:54;;;;;;;2.27;2.00;;;11.30;90.00;;;;;;5056041;28;20475;-62
2023/05/20 01:21:23;;;;;;;3.40;1.90;;;11.20;90.10;;;;;;5055703;28;20847;-63
2023/05/20 01:23:51;;;;;;;1.80;1.50;;;11.20;90.10;;;;;;5055844;28;20975;-62
2023/05/20 01:26:18;;;;;;;2.10;1.77;;;11.20;90.30;;;;;;5056077;28;20447;-63
2023/05/20 01:28:45;;;;;;;4.80;1.87;;;11.10;90.30;;;;;;5056108;28;20475;-63
2023/05/20 01:31:26;;;;;;;2.57;2.17;;;11.10;90.50;;;;;;5056507;28;20451;-64
2023/05/20 01:33:57;;;;;;;2.37;2.10;;;11.10;90.50;;;;;;5056078;28;20436;-62
2023/05/20 01:36:25;;;;;;;3.73;2.23;;;11.10;90.50;;;;;;5056018;28;20533;-64
2023/05/20 01:38:54;;;;;;;2.27;2.00;;;11.10;90.60;;;;;;5055424;28;20507;-62
2023/05/20 01:41:21;;;;;;;4.10;2.20;;;11.00;90.60;;;;;;5056567;28;20504;-63
2023/05/20 01:43:48;;;;;;;2.43;1.80;;;11.00;90.70;;;;;;5056372;28;20436;-63
2023/05/20 01:46:15;;;;;;;2.77;1.60;;;11.00;90.80;;;;;;5056430;28;20448;-65
2023/05/20 01:48:42;;;;;;;2.20;1.77;;;11.00;90.80;;;;;;5056401;28;20468;-63
2023/05/20 01:51:09;;;;;;;1.73;1.63;;;10.90;90.80;;;;;;5057490;28;20201;-63
2023/05/20 01:53:36;;;;;;;1.60;1.50;;;10.90;90.90;;;;;;5058857;28;20452;-63
2023/05/20 01:56:06;;;;;;;2.30;1.70;;;10.90;90.90;;;;;;5057811;28;20454;-63
2023/05/20 01:58:32;;;;;;;5.15;1.80;;;10.90;91.00;;;;;;5058362;28;20488;-63
2023/05/20 02:01:00;;;;;;;2.13;1.77;;;10.80;91.10;;;;;;5057758;28;20208;-63
2023/05/20 02:03:27;;;;;;;2.20;2.00;;;10.80;91.10;;;;;;5057382;28;20448;-63
2023/05/20 02:05:54;;;;;;;8.00;2.33;;;10.80;91.20;;;;;;5056890;28;20444;-63
2023/05/20 02:08:20;;;;;;;2.77;2.10;;;10.80;91.30;;;;;;5055521;28;20457;-63
2023/05/20 02:10:48;;;;;;;6.03;2.00;;;10.80;91.30;;;;;;5055269;28;20454;-63
2023/05/20 02:13:16;;;;;;;2.07;1.77;;;10.70;91.40;;;;;;5055050;28;20821;-63
2023/05/20 02:15:43;;;;;;;4.30;2.00;;;10.70;91.50;;;;;;5055095;28;20831;-63
2023/05/20 02:18:11;;;;;;;4.60;2.10;;;10.70;91.70;;;;;;5055160;28;20909;-62
2023/05/20 02:20:38;;;;;;;3.60;1.90;;;10.70;91.80;;;;;;5055019;28;20296;-63
2023/05/20 02:23:05;;;;;;;2.23;2.00;;;10.60;91.90;;;;;;5055165;28;20444;-63
2023/05/20 02:25:32;;;;;;;2.80;2.00;;;10.60;92.00;;;;;;5055594;28;20454;-63
2023/05/20 02:27:59;;;;;;;2.45;2.17;;;10.60;92.30;;;;;;5054674;28;20650;-63
2023/05/20 02:30:27;;;;;;;5.37;2.03;;;10.60;92.10;;;;;;5054849;28;20288;-63
2023/05/20 02:32:54;;;;;;;2.80;1.75;;;10.60;92.40;;;;;;5054523;28;20938;-65
2023/05/20 02:35:21;;;;;;;2.20;2.00;;;10.60;92.50;;;;;;5054961;28;20222;-62
2023/05/20 02:37:48;;;;;;;3.05;2.00;;;10.60;92.60;;;;;;5054682;28;20224;-63
2023/05/20 02:40:15;;;;;;;3.42;1.80;;;10.50;92.60;;;;;;5054546;28;20676;-64
2023/05/20 02:42:42;;;;;;;4.07;2.17;;;10.50;92.80;;;;;;5054658;28;20204;-63
2023/05/20 02:45:09;;;;;;;3.77;1.93;;;10.50;92.90;;;;;;5054285;28;20668;-63
2023/05/20 02:47:37;;;;;;;2.30;2.10;;;10.60;93.00;;;;;;5054319;28;20444;-62
2023/05/20 02:50:08;;;;;;;2.28;2.03;;;10.60;93.00;;;;;;5053317;28;20451;-62
2023/05/20 02:52:36;;;;;;;3.17;2.28;;;10.60;93.10;;;;;;5053958;28;20190;-63
2023/05/20 02:55:02;;;;;;;2.13;1.93;;;10.60;92.90;;;;;;5054502;28;20210;-63
2023/05/20 02:57:29;;;;;;;1.97;1.87;;;10.60;92.90;;;;;;5054416;28;20484;-62
2023/05/20 02:59:56;;;;;;;1.97;1.77;;;10.70;93.00;;;;;;5054248;28;20457;-63
2023/05/20 03:02:23;;;;;;;1.60;1.50;;;10.70;93.00;;;;;;5053948;28;20544;-63
2023/05/20 03:04:52;;;;;;;3.47;2.33;;;10.70;92.90;;;;;;5054550;28;20492;-62
2023/05/20 03:07:20;;;;;;;2.40;2.20;;;10.70;92.90;;;;;;5054836;28;20792;-63
2023/05/20 03:09:47;;;;;;;2.70;2.00;;;10.70;92.90;;;;;;5053824;28;20474;-64
2023/05/20 03:12:14;;;;;;;3.50;2.00;;;10.70;93.10;;;;;;5053456;28;20891;-62
2023/05/20 03:14:41;;;;;;;2.33;2.00;;;10.70;93.30;;;;;;5053869;28;20459;-62
2023/05/20 03:17:09;;;;;;;2.40;1.67;;;10.70;93.20;;;;;;5054086;28;20856;-63
2023/05/20 03:19:35;;;;;;;3.10;2.17;;;10.70;93.40;;;;;;5053624;28;20456;-63
2023/05/20 03:22:04;;;;;;;2.60;2.10;;;10.70;93.20;;;;;;5053955;28;20444;-63
2023/05/20 03:24:31;;;;;;;2.53;2.25;;;10.70;93.20;;;;;;5053713;28;20519;-63
2023/05/20 03:26:58;;;;;;;2.45;1.98;;;10.70;93.30;;;;;;5053740;28;20573;-63
2023/05/20 03:29:25;;;;;;;2.17;1.80;;;10.70;93.60;;;;;;5053548;28;20218;-63
2023/05/20 03:31:52;;;;;;;4.40;1.97;;;10.70;93.50;;;;;;5053513;28;20521;-64
2023/05/20 03:34:19;;;;;;;2.37;2.17;;;10.60;93.60;;;;;;5053020;28;20809;-63
2023/05/20 03:36:46;;;;;;;9.18;2.35;;;10.60;93.70;;;;;;5053175;28;20456;-63
2023/05/20 03:39:14;;;;;;;3.42;2.17;;;10.60;93.90;;;;;;5053221;28;20579;-63
2023/05/20 03:41:41;;;;;;;2.45;2.25;;;10.60;94.00;;;;;;5053309;28;20296;-64
2023/05/20 03:44:07;;;;;;;2.70;2.00;;;10.60;94.00;;;;;;5053282;28;20603;-63
2023/05/20 03:46:34;;;;;;;2.28;2.08;;;10.60;94.10;;;;;;5053186;28;20444;-63
2023/05/20 03:49:01;;;;;;;2.53;2.30;;;10.70;94.20;;;;;;5053110;28;20769;-63
2023/05/20 03:51:28;;;;;;;2.23;2.03;;;10.70;94.10;;;;;;5053057;28;20460;-63
2023/05/20 03:53:55;;;;;;;3.17;2.30;;;10.70;93.90;;;;;;5052910;28;20538;-63
2023/05/20 03:56:23;;;;;;;6.50;2.53;;;10.80;93.90;;;;;;5053552;28;20205;-63
2023/05/20 03:58:50;;;;;;;2.73;2.30;;;10.80;93.90;;;;;;5052956;28;20234;-61
2023/05/20 04:01:17;;;;;;;2.95;2.53;;;10.80;93.90;;;;;;5053226;28;20444;-62
2023/05/20 04:03:43;;;;;;;3.37;2.50;;;10.80;93.80;;;;;;5053290;28;20297;-62
2023/05/20 04:06:10;;;;;;;3.23;2.13;;;10.90;93.80;;;;;;5053810;28;20527;-62
2023/05/20 04:11:45;;;;;;;2.23;2.03;;;10.90;93.30;;;;;;5112429;27;20592;-64
2023/05/20 04:14:12;;;;;;;3.90;1.90;;;11.00;93.30;;;;;;5112845;28;20896;-63
2023/05/20 04:16:39;;;;;;;2.50;2.10;;;11.00;93.20;;;;;;5113544;28;20441;-64
2023/05/20 04:19:06;;;;;;;2.10;1.50;;;11.00;93.20;;;;;;5114507;28;20465;-60
2023/05/20 04:21:32;;;;;;;3.00;2.40;;;11.00;93.20;;;;;;5113299;28;20544;-65
2023/05/20 04:23:59;;;;;;;3.10;2.10;;;11.00;93.20;;;;;;5116981;28;20450;-65
2023/05/20 04:26:26;;;;;;;2.83;1.77;;;11.10;93.20;;;;;;5116881;28;20442;-64
2023/05/20 04:28:57;;;;;;;2.67;2.27;;;11.10;93.20;;;;;;5117154;28;20469;-63
2023/05/20 04:31:25;;;;;;;2.50;2.23;;;11.10;93.20;;;;;;5113607;28;20457;-64
2023/05/20 04:33:55;;;;;;;2.57;1.90;;;11.10;93.10;;;;;;5113454;28;20450;-65
2023/05/20 04:36:27;;;;;;;2.50;2.30;;;11.20;93.30;;;;;;5113440;28;20882;-64
2023/05/20 04:38:54;;;;;;;2.23;2.03;;;11.20;92.90;;;;;;5114050;28;20492;-63
2023/05/20 04:41:21;;;;;;;2.90;2.50;;;11.20;92.80;;;;;;5114115;28;20525;-64
2023/05/20 04:43:48;;;;;;;3.70;2.13;;;11.30;92.80;;;;;;5114899;28;20449;-64
2023/05/20 04:46:17;;;;;;;4.73;2.37;;;11.30;92.60;;;;;;5114408;28;20516;-64
2023/05/20 04:48:44;;;;;;;2.77;2.40;;;11.40;92.50;;;;;;5110522;28;20469;-65
2023/05/20 04:51:10;;;;;;;2.90;2.20;;;11.40;92.30;;;;;;5110798;28;20485;-65
2023/05/20 04:53:39;;;;;;;2.50;2.30;;;11.50;92.20;;;;;;5110238;28;20446;-64
2023/05/20 04:56:07;;;;;;;2.80;2.20;;;11.50;92.00;;;;;;5109977;28;21000;-64
2023/05/20 04:58:34;;;;;;;3.33;2.37;;;11.60;91.90;;;;;;5110837;28;20477;-64
2023/05/20 05:01:01;;;;;;;3.80;2.30;;;11.70;92.00;;;;;;5109799;28;20446;-64
2023/05/20 05:03:29;;;;;;;2.80;2.27;;;11.90;91.70;;;;;;5110015;28;20868;-64
2023/05/20 05:05:56;;;;;;;3.23;2.17;;;12.10;91.20;;;;;;5110277;28;20471;-65
2023/05/20 05:08:23;;;;;;;3.20;2.40;;;12.20;90.90;;;;;;5110733;28;20461;-64
2023/05/20 05:10:50;;;;;;;2.20;2.00;;;12.40;90.20;;;;;;5110174;28;21002;-64
2023/05/20 05:13:17;;;;;;;2.90;2.57;;;12.50;89.50;;;;;;5109919;28;20452;-63
2023/05/20 05:15:43;;;;;;;3.97;3.10;;;12.60;88.60;;;;;;5110073;28;20534;-64
2023/05/20 05:18:10;;;;;;;2.70;2.40;;;12.70;87.70;;;;;;5110087;28;20478;-63
2023/05/20 05:20:38;;;;;;;3.63;2.37;;;12.70;87.40;;;;;;5109908;28;20801;-64
2023/05/20 05:23:05;;;;;;;4.83;2.57;;;12.70;87.00;;;;;;5096152;28;20545;-64
2023/05/20 05:25:33;;;;;;;6.43;2.47;;;12.70;86.30;;;;;;5096406;28;20449;-62
2023/05/20 05:27:59;;;;;;;3.97;2.87;;;12.70;86.50;;;;;;5095996;28;20466;-61
2023/05/20 05:30:27;;;;;;;3.47;2.23;;;12.70;86.80;;;;;;5095806;28;20997;-61
2023/05/20 05:32:53;;;;;;;3.73;2.37;;;12.70;86.80;;;;;;5096382;28;20489;-62
2023/05/20 05:35:20;;;;;;;4.37;2.73;;;12.70;86.70;;;;;;5096519;28;20442;-61
2023/05/20 05:37:48;;;;;;;2.50;2.30;;;12.80;86.90;;;;;;5096773;28;20528;-61
2023/05/20 05:40:15;;;;;;;4.73;3.37;;;12.80;86.80;;;;;;5101119;28;20465;-62
2023/05/20 05:42:42;;;;;;;3.50;2.83;;;12.80;87.00;;;;;;5099355;28;20442;-62
2023/05/20 05:45:10;;;;;;;5.37;3.23;;;12.80;87.20;;;;;;5098526;28;20450;-61
2023/05/20 05:47:37;;;;;;;3.77;2.67;;;12.80;87.40;;;;;;5097489;28;20450;-61
2023/05/20 05:50:04;;;;;;;3.43;2.40;;;12.80;87.20;;;;;;5101281;28;20438;-62
2023/05/20 05:52:31;;;;;;;3.40;2.47;;;12.80;87.20;;;;;;5102604;28;20458;-61
2023/05/20 05:54:59;;;;;;;4.20;2.60;;;12.80;87.40;;;;;;5103201;28;20452;-62
2023/05/20 05:57:25;;;;;;;5.97;3.03;;;12.90;87.60;;;;;;5096284;28;20450;-59
2023/05/20 05:59:52;;;;;;;5.40;2.73;;;12.90;87.60;;;;;;5095427;28;20462;-62
2023/05/20 06:02:19;;;;;;;3.00;2.70;;;13.00;87.80;;;;;;5095287;28;20450;-61
2023/05/20 06:04:46;;;;;;;4.80;3.30;;;13.00;88.00;;;;;;5095306;28;20446;-61
2023/05/20 06:07:12;;;;;;;3.23;2.83;;;13.00;87.80;;;;;;5095448;28;20442;-62
2023/05/20 06:09:39;;;;;;;3.90;3.10;;;13.00;87.80;;;;;;5094935;28;21005;-63
2023/05/20 06:12:07;;;;;;;2.60;2.40;;;13.00;87.90;;;;;;5095161;28;20477;-61
2023/05/20 06:14:34;;;;;;;3.93;3.37;;;13.10;88.10;;;;;;5095189;28;20450;-62
2023/05/20 06:17:01;;;;;;;4.20;2.40;;;13.10;88.00;;;;;;5095203;28;20445;-62
2023/05/20 06:19:28;;;;;;;4.20;3.40;;;13.10;87.80;;;;;;5095133;28;20516;-62
2023/05/20 06:21:56;;;;;;;4.63;3.27;;;13.20;87.80;;;;;;5094563;28;20454;-61
2023/05/20 06:24:22;;;;;;;4.93;3.33;;;13.20;87.90;;;;;;5094889;28;20468;-61
2023/05/20 06:26:49;;;;;;;3.33;2.70;;;13.30;88.10;;;;;;5095019;28;20451;-61
2023/05/20 06:29:18;;;;;;;3.13;2.83;;;13.30;87.80;;;;;;5094835;28;20561;-61
2023/05/20 06:31:44;;;;;;;8.70;3.00;;;13.40;87.90;;;;;;5094544;28;20474;-61
2023/05/20 06:34:11;;;;;;;6.70;3.80;;;13.50;87.70;;;;;;5093827;28;20442;-61
2023/05/20 06:36:38;;;;;;;4.53;3.40;;;13.60;87.50;;;;;;5095325;28;20443;-60
2023/05/20 06:39:10;;;;;;;4.10;3.17;;;13.60;87.40;;;;;;5094887;28;20560;-61
2023/05/20 06:41:38;;;;;;;3.30;2.90;;;13.70;87.40;;;;;;5094626;28;20783;-61
2023/05/20 06:44:05;;;;;;;3.60;2.87;;;13.90;86.80;;;;;;5094816;28;20958;-61
2023/05/20 06:46:33;;;;;;;3.00;2.70;;;14.00;86.50;;;;;;5094696;28;20446;-61
2023/05/20 06:49:00;;;;;;;6.17;3.63;;;14.10;85.90;;;;;;5094585;28;20983;-62
2023/05/20 06:51:27;;;;;;;4.23;3.73;;;14.20;85.40;;;;;;5094939;28;20517;-62
2023/05/20 06:53:54;;;;;;;5.23;3.97;;;14.30;85.10;;;;;;5095207;28;20469;-62
2023/05/20 06:56:21;;;;;;;4.20;3.60;;;14.30;84.60;;;;;;5094788;28;20442;-62
2023/05/20 06:58:48;;;;;;;3.43;3.03;;;14.40;84.10;;;;;;5093924;28;21006;-62
2023/05/20 07:01:15;;;;;;;7.00;3.70;;;14.50;83.60;;;;;;5094292;28;20445;-61
2023/05/20 07:03:43;;;;;;;4.20;3.80;;;14.60;82.70;;;;;;5094489;28;20442;-62
2023/05/20 07:06:10;;;;;;;4.47;3.67;;;14.70;81.50;;;;;;5094379;28;20474;-62
2023/05/20 07:08:37;;;;;;;4.23;3.50;;;14.80;80.90;;;;;;5094021;28;20471;-61
2023/05/20 07:11:03;;;;;;;3.67;3.30;;;14.90;80.30;;;;;;5093679;28;20482;-62
2023/05/20 07:13:30;;;;;;;5.67;3.67;;;15.00;79.40;;;;;;5093898;28;20442;-61
2023/05/20 07:15:57;;;;;;;3.87;2.97;;;15.10;78.60;;;;;;5093630;28;20971;-62
2023/05/20 07:18:24;;;;;;;6.80;3.63;;;15.20;77.20;;;;;;5094544;28;20480;-61
2023/05/20 07:20:52;;;;;;;5.23;3.80;;;15.40;76.20;;;;;;5094025;28;20438;-60
2023/05/20 07:23:19;;;;;;;5.03;3.40;;;15.60;74.90;;;;;;5094306;28;20454;-62
2023/05/20 07:25:46;;;;;;;4.63;3.40;;;15.80;73.90;;;;;;5094653;28;20442;-61
2023/05/20 07:28:15;;;;;;;6.60;3.20;;;15.90;72.50;;;;;;5094358;28;20552;-62
2023/05/20 07:30:42;;;;;;;3.60;3.30;;;16.10;70.90;;;;;;5094689;28;20478;-62
2023/05/20 07:33:08;;;;;;;6.07;3.00;;;16.20;70.00;;;;;;5102900;28;20500;-62
2023/05/20 07:35:35;;;;;;;8.33;3.03;;;16.30;68.30;;;;;;5098495;28;20813;-62
2023/05/20 07:38:03;;;;;;;4.70;2.60;;;16.20;67.60;;;;;;5093211;28;20495;-61
2023/05/20 07:40:30;;;;;;;2.73;2.40;;;16.30;67.30;;;;;;5093320;28;20449;-61
2023/05/20 07:42:57;;;;;;;3.13;2.50;;;16.40;66.70;;;;;;5093671;28;20448;-63
2023/05/20 07:45:24;;;;;;;4.13;3.10;;;16.30;65.50;;;;;;5093101;28;20446;-62
2023/05/20 07:47:50;;;;;;;4.17;2.60;;;16.30;65.20;;;;;;5093267;28;20542;-62
2023/05/20 07:50:17;;;;;;;4.83;2.80;;;16.20;64.70;;;;;;5094127;28;20447;-61
2023/05/20 07:52:44;;;;;;;5.13;2.90;;;16.10;64.70;;;;;;5094515;28;20496;-61
2023/05/20 07:55:12;;;;;;;5.33;2.90;;;16.10;64.20;;;;;;5096604;28;20451;-61
2023/05/20 07:57:39;;;;;;;3.50;2.67;;;16.10;63.70;;;;;;5095650;28;20448;-61
2023/05/20 08:00:08;;;;;;;3.27;2.97;;;16.10;63.60;;;;;;5094532;28;20449;-61
2023/05/20 08:02:34;;;;;;;4.53;2.90;;;16.10;63.30;;;;;;5095066;28;20470;-62
2023/05/20 08:05:01;;;;;;;3.93;3.00;;;16.10;63.30;;;;;;5094329;28;20446;-61
2023/05/20 08:07:28;;;;;;;4.17;3.13;;;16.10;63.20;;;;;;5094180;28;20447;-61
2023/05/20 08:09:55;;;;;;;3.70;3.20;;;16.10;63.10;;;;;;5094839;28;20474;-63
2023/05/20 08:12:23;;;;;;;3.90;3.10;;;16.20;63.30;;;;;;5093251;28;20478;-61
2023/05/20 08:14:50;;;;;;;5.47;3.00;;;16.30;63.40;;;;;;5094285;28;20446;-61
2023/05/20 08:17:16;;;;;;;4.80;3.27;;;16.40;63.10;;;;;;5093619;28;20462;-61
2023/05/20 08:19:43;;;;;;;5.13;3.37;;;16.50;62.70;;;;;;5093608;28;20469;-62
2023/05/20 08:22:10;;;;;;;8.53;3.13;;;16.60;62.20;;;;;;5094537;28;20450;-61
2023/05/20 08:24:37;;;;;;;3.13;2.67;;;16.80;61.60;;;;;;5094127;28;20450;-62
2023/05/20 08:27:04;;;;;;;2.70;2.50;;;17.00;60.80;;;;;;5094140;28;20438;-62
2023/05/20 08:29:32;;;;;;;5.20;2.80;;;17.20;59.90;;;;;;5093950;28;20505;-62
2023/05/20 08:31:58;;;;;;;5.20;3.03;;;17.40;59.20;;;;;;5093659;28;20485;-62
2023/05/20 08:34:25;;;;;;;2.60;2.40;;;17.40;59.00;;;;;;5095099;28;20442;-62
2023/05/20 08:36:52;;;;;;;3.70;2.70;;;17.50;58.80;;;;;;5094877;28;20442;-62
2023/05/20 08:39:19;;;;;;;2.60;2.40;;;17.50;58.80;;;;;;5095049;28;20975;-61
2023/05/20 08:41:47;;;;;;;3.00;2.70;;;17.50;58.60;;;;;;5094403;28;20442;-62
2023/05/20 08:44:14;;;;;;;3.30;3.00;;;17.70;58.50;;;;;;5094785;28;20442;-61
2023/05/20 08:46:43;;;;;;;3.87;2.70;;;17.80;57.90;;;;;;5093784;28;20545;-63
2023/05/20 08:49:10;;;;;;;4.23;2.40;;;17.90;57.70;;;;;;5093400;28;20553;-61
2023/05/20 08:51:37;;;;;;;3.20;2.90;;;18.00;57.30;;;;;;5093046;28;20500;-63
2023/05/20 08:54:05;;;;;;;11.23;3.00;;;18.00;57.30;;;;;;5093056;28;20529;-62
2023/05/20 08:56:32;;;;;;;4.73;3.10;;;18.10;57.10;;;;;;5093746;28;20556;-62
2023/05/20 08:58:59;;;;;;;3.50;2.93;;;18.00;57.10;;;;;;5096951;28;20515;-62
2023/05/20 09:01:26;;;;;;;3.53;2.93;;;18.00;57.30;;;;;;5096652;28;20449;-62
2023/05/20 09:03:54;;;;;;;3.03;2.63;;;17.90;57.40;;;;;;5097068;28;20448;-62
2023/05/20 09:06:22;;;;;;;3.37;2.90;;;17.70;57.80;;;;;;5097278;28;20648;-62
2023/05/20 09:08:50;;;;;;;5.70;3.13;;;17.50;58.20;;;;;;5097550;28;20501;-62
2023/05/20 09:11:17;;;;;;;3.83;3.00;;;17.50;58.60;;;;;;5097749;28;20481;-63
2023/05/20 09:13:44;;;;;;;4.63;3.57;;;17.50;58.60;;;;;;5101141;28;20538;-62
2023/05/20 09:16:12;;;;;;;3.57;3.20;;;17.50;58.70;;;;;;5101416;28;20548;-61
2023/05/20 09:18:39;;;;;;;4.63;3.47;;;17.40;58.70;;;;;;5099633;28;20515;-62
2023/05/20 09:21:10;;;;;;;6.70;3.17;;;17.50;58.90;;;;;;5099110;28;20442;-62
2023/05/20 09:23:38;;;;;;;3.70;3.00;;;17.60;58.60;;;;;;5100013;28;20429;-62
2023/05/20 09:26:04;;;;;;;3.37;3.07;;;17.70;58.20;;;;;;5102145;28;20527;-63
2023/05/20 09:28:32;;;;;;;3.83;3.43;;;17.70;58.20;;;;;;5101559;28;20583;-62
2023/05/20 09:31:02;;;;;;;3.33;2.93;;;17.70;58.10;;;;;;5101686;28;20445;-63
2023/05/20 09:33:30;;;;;;;3.23;2.67;;;17.70;58.10;;;;;;5102676;28;20437;-62
2023/05/20 09:36:03;;;;;;;4.70;3.90;;;17.50;58.10;;;;;;5103016;28;20434;-62
2023/05/20 09:38:39;;;;;;;6.30;4.10;;;17.20;58.50;;;;;;5103195;28;20484;-63
2023/05/20 09:41:08;;;;;;;3.53;3.03;;;16.90;59.20;;;;;;5104007;28;20426;-61
2023/05/20 09:43:36;;;;;;;3.40;3.10;;;16.70;59.60;;;;;;5100157;28;20442;-62
2023/05/20 09:46:04;;;;;;;4.23;2.73;;;16.70;60.10;;;;;;5095919;28;20442;-63
2023/05/20 09:48:31;;;;;;;3.20;2.83;;;16.60;60.40;;;;;;5096632;28;20470;-62
2023/05/20 09:50:59;;;;;;;3.57;3.27;;;16.70;60.40;;;;;;5101336;28;20481;-62
2023/05/20 09:53:27;;;;;;;8.07;3.30;;;16.70;60.20;;;;;;5099775;28;20445;-64
2023/05/20 09:55:56;;;;;;;3.13;2.83;;;16.80;60.10;;;;;;5100350;28;20468;-62
2023/05/20 09:58:24;;;;;;;5.60;3.50;;;16.90;60.40;;;;;;5095613;28;20579;-63
2023/05/20 10:00:52;;;;;;;3.00;2.67;;;16.90;59.90;;;;;;5095942;28;20948;-62
2023/05/20 10:03:22;;;;;;;5.17;2.77;;;17.00;59.70;;;;;;5095677;28;20940;-62
2023/05/20 10:06:00;;;;;;;3.40;2.50;;;17.00;59.50;;;;;;5095810;28;20465;-64
2023/05/20 10:08:47;;;;;;;2.83;2.30;;;17.00;59.40;;;;;;5095737;28;20458;-62
2023/05/20 10:11:25;;;;;;;5.10;4.17;;;17.00;59.30;;;;;;5094866;28;20457;-62
2023/05/20 10:14:17;;;;;;;3.60;3.10;;;17.00;59.30;;;;;;5095364;28;20426;-61
2023/05/20 10:16:53;;;;;;;4.23;2.80;;;17.10;59.30;;;;;;5095035;28;20434;-62
2023/05/20 10:19:29;;;;;;;5.10;2.90;;;17.10;59.40;;;;;;5095590;28;20469;-63
2023/05/20 10:22:01;;;;;;;3.17;2.87;;;17.10;59.50;;;;;;5096186;28;20432;-63
2023/05/20 10:24:32;;;;;;;4.33;2.80;;;17.00;59.70;;;;;;5095762;28;20510;-63
2023/05/20 10:27:02;;;;;;;3.33;2.80;;;17.00;60.00;;;;;;5095912;28;20446;-62
2023/05/20 10:29:30;;;;;;;3.43;2.43;;;16.90;60.40;;;;;;5095021;28;20470;-62
2023/05/20 10:31:56;;;;;;;4.33;2.60;;;16.80;60.90;;;;;;5095708;28;20527;-61
2023/05/20 10:34:24;;;;;;;4.47;3.13;;;16.70;61.30;;;;;;5094896;28;20453;-63
2023/05/20 10:37:47;;;;;;;4.57;2.67;;;16.70;61.60;;;;;;5095637;28;20519;-63
2023/05/20 10:40:15;;;;;;;2.70;2.37;;;16.90;61.70;;;;;;5093202;28;20458;-65
2023/05/20 10:42:43;;;;;;;3.40;3.10;;;17.00;61.40;;;;;;5095736;28;20794;-64
2023/05/20 10:45:11;;;;;;;4.77;3.50;;;17.10;61.20;;;;;;5097693;28;20809;-65
2023/05/20 10:47:53;;;;;;;4.97;3.13;;;17.30;60.90;;;;;;5096928;28;20445;-64
2023/05/20 10:50:27;;;;;;;3.23;2.93;;;17.40;60.40;;;;;;5095973;28;20426;-63
2023/05/20 10:52:55;;;;;;;2.93;2.63;;;17.50;60.00;;;;;;5094955;28;20973;-65
2023/05/20 10:55:22;;;;;;;2.83;2.63;;;17.50;60.00;;;;;;5095137;28;20455;-63
2023/05/20 10:57:52;;;;;;;3.43;2.53;;;17.60;60.00;;;;;;5098944;28;20544;-64
2023/05/20 11:00:19;;;;;;;4.00;3.30;;;17.70;60.40;;;;;;5099199;28;20450;-65
2023/05/20 11:02:49;;;;;;;3.83;2.70;;;18.00;59.40;;;;;;5097114;28;20438;-65
2023/05/20 11:05:17;;;;;;;6.33;3.17;;;18.30;58.70;;;;;;5098195;28;20446;-66
2023/05/20 11:07:44;;;;;;;4.43;2.90;;;18.30;58.10;;;;;;5104411;28;20983;-63
2023/05/20 11:10:11;;;;;;;3.73;3.10;;;18.10;58.20;;;;;;5098156;28;20545;-62
2023/05/20 11:12:39;;;;;;;4.23;3.23;;;18.00;58.70;;;;;;5095527;28;20486;-63
2023/05/20 11:15:11;;;;;;;4.03;3.57;;;17.90;59.00;;;;;;5095252;28;20460;-62
2023/05/20 11:17:38;;;;;;;4.10;3.40;;;17.80;59.20;;;;;;5094685;28;20454;-63
2023/05/20 11:20:06;;;;;;;6.53;2.80;;;17.70;59.40;;;;;;5098164;28;20485;-62
2023/05/20 11:22:32;;;;;;;5.20;3.70;;;17.80;59.80;;;;;;5100942;28;20445;-63
2023/05/20 11:24:59;;;;;;;3.90;3.00;;;17.90;59.60;;;;;;5098153;28;20541;-63
2023/05/20 11:27:27;;;;;;;2.93;2.70;;;17.90;59.40;;;;;;5096722;28;20465;-63
2023/05/20 11:29:55;;;;;;;3.80;3.10;;;18.00;59.40;;;;;;5097665;28;20481;-62
2023/05/20 11:32:23;;;;;;;3.10;2.80;;;18.00;59.20;;;;;;5096026;28;20478;-61
2023/05/20 11:34:52;;;;;;;3.47;3.17;;;18.00;59.30;;;;;;5098085;28;20472;-62
2023/05/20 11:37:20;;;;;;;3.97;3.20;;;18.00;59.20;;;;;;5098725;28;20442;-63
2023/05/20 11:39:47;;;;;;;3.47;3.17;;;18.10;59.30;;;;;;5096594;28;20462;-63
2023/05/20 11:42:15;;;;;;;4.70;2.70;;;18.20;59.30;;;;;;5095096;28;20442;-63
2023/05/20 11:44:44;;;;;;;4.20;3.40;;;18.40;59.10;;;;;;5094923;28;20453;-62
2023/05/20 11:47:11;;;;;;;5.17;3.70;;;18.60;58.30;;;;;;5095922;28;20443;-62
2023/05/20 11:49:42;;;;;;;5.87;3.20;;;18.60;57.90;;;;;;5100397;28;20469;-63
2023/05/20 11:52:10;;;;;;;3.93;2.90;;;18.60;57.80;;;;;;5095828;28;20473;-63
2023/05/20 11:54:37;;;;;;;3.17;2.77;;;18.70;57.70;;;;;;5094585;28;20472;-65
2023/05/20 11:57:04;;;;;;;3.70;2.77;;;18.70;57.60;;;;;;5097580;28;20446;-64
2023/05/20 11:59:32;;;;;;;3.17;2.87;;;18.60;57.50;;;;;;5093967;28;20546;-62
2023/05/20 12:01:59;;;;;;;3.37;2.90;;;18.40;57.90;;;;;;5093890;28;20473;-63
2023/05/20 12:04:26;;;;;;;4.20;3.53;;;18.20;58.30;;;;;;5094015;28;20452;-63
2023/05/20 12:06:54;;;;;;;4.40;3.20;;;18.00;58.90;;;;;;5093382;28;20474;-63
2023/05/20 12:09:22;;;;;;;5.00;3.20;;;17.90;59.50;;;;;;5093377;28;20991;-62
2023/05/20 12:11:49;;;;;;;5.13;3.40;;;17.80;59.80;;;;;;5098491;28;20500;-63
2023/05/20 12:14:21;;;;;;;4.67;3.90;;;17.90;60.00;;;;;;5096087;28;20478;-62
2023/05/20 12:16:47;;;;;;;3.57;3.27;;;18.10;59.90;;;;;;5095890;28;20419;-64
2023/05/20 12:19:14;;;;;;;4.17;2.87;;;18.40;59.10;;;;;;5094023;28;20549;-63
2023/05/20 12:21:41;;;;;;;3.43;2.90;;;18.60;58.50;;;;;;5094030;28;20884;-63
2023/05/20 12:24:09;;;;;;;4.60;3.33;;;18.80;58.10;;;;;;5093679;28;20537;-65
2023/05/20 12:26:36;;;;;;;4.97;3.13;;;18.70;57.90;;;;;;5093702;28;20492;-64
2023/05/20 12:29:03;;;;;;;4.37;3.40;;;18.70;58.00;;;;;;5093832;28;20466;-63
2023/05/20 12:31:39;;;;;;;4.03;3.10;;;18.70;58.00;;;;;;5095189;28;20446;-63
2023/05/20 12:34:08;;;;;;;4.00;3.60;;;18.70;58.00;;;;;;5099368;28;20552;-64
2023/05/20 12:36:36;;;;;;;3.67;3.30;;;18.70;57.70;;;;;;5100484;28;20443;-63
2023/05/20 12:39:03;;;;;;;5.20;4.23;;;18.60;57.80;;;;;;5097216;28;21040;-64
2023/05/20 12:41:31;;;;;;;5.73;4.87;;;18.50;58.10;;;;;;5097387;28;20538;-62
2023/05/20 12:43:58;;;;;;;4.70;4.00;;;18.40;58.20;;;;;;5097874;28;20438;-64
2023/05/20 12:46:25;;;;;;;10.33;5.37;;;18.40;58.40;;;;;;5097641;28;20446;-64
2023/05/20 12:48:52;;;;;;;3.90;3.50;;;18.40;58.40;;;;;;5097968;28;20991;-64
2023/05/20 12:51:19;;;;;;;3.93;3.50;;;18.50;58.40;;;;;;5097768;28;20446;-63
2023/05/20 12:53:46;;;;;;;6.43;4.20;;;18.50;58.40;;;;;;5097814;28;20478;-62